Time;durP1;ratioP1;P1;durP2;ratioP2;P2;SDS_P1;SDS_P2;PMS_P1;PMS_P2;Temp;Humidity;BMP_temperature;BMP_pressure;BME280_temperature;BME280_humidity;BME280_pressure;Samples;Min_cycle;Max_cycle;Signal;HPM_P1;HPM_P2
2022/03/05 00:01:54;;;;;;;7.03;1.98;;;;;;;;;;5096437;28;20160;-63
2022/03/05 00:04:20;;;;;;;3.70;1.90;;;;;;;;;;5095752;28;20168;-63
2022/03/05 00:06:47;;;;;;;4.72;1.92;;;;;;;;;;5096171;28;20191;-62
2022/03/05 00:09:13;;;;;;;3.90;1.75;;;;;;;;;;5096112;28;20561;-63
2022/03/05 00:11:39;;;;;;;3.22;1.60;;;;;;;;;;5095833;28;20530;-63
2022/03/05 00:14:05;;;;;;;4.93;2.13;;;;;;;;;;5095877;28;20169;-63
2022/03/05 00:16:31;;;;;;;5.88;2.08;;;;;;;;;;5095777;28;20160;-63
2022/03/05 00:18:57;;;;;;;2.35;1.52;;;;;;;;;;5095628;28;20171;-63
2022/03/05 00:21:23;;;;;;;4.05;1.60;;;;;;;;;;5095861;28;20225;-63
2022/03/05 00:23:49;;;;;;;3.15;1.45;;;;;;;;;;5095464;28;20615;-63
2022/03/05 00:26:16;;;;;;;4.28;1.52;;;;;;;;;;5095464;28;20187;-63
2022/03/05 00:28:42;;;;;;;5.78;1.60;;;;;;;;;;5096067;28;20204;-63
2022/03/05 00:31:08;;;;;;;2.70;1.50;;;;;;;;;;5096013;28;20175;-63
2022/03/05 00:33:34;;;;;;;4.20;1.70;;;;;;;;;;5095695;28;20469;-63
2022/03/05 00:36:00;;;;;;;3.58;1.50;;;;;;;;;;5097058;28;20174;-63
2022/03/05 00:38:26;;;;;;;3.35;1.55;;;;;;;;;;5097383;28;20172;-63
2022/03/05 00:40:52;;;;;;;3.42;1.58;;;;;;;;;;5096666;28;20168;-64
2022/03/05 00:43:18;;;;;;;3.20;1.40;;;;;;;;;;5096433;28;20254;-63
2022/03/05 00:45:44;;;;;;;3.45;1.50;;;;;;;;;;5096051;28;20195;-63
2022/03/05 00:48:10;;;;;;;3.90;1.80;;;;;;;;;;5096783;28;20657;-63
2022/03/05 00:50:36;;;;;;;3.33;1.67;;;;;;;;;;5098498;28;20163;-64
2022/03/05 00:53:02;;;;;;;5.28;1.75;;;;;;;;;;5100370;28;20613;-64
2022/03/05 00:55:28;;;;;;;4.15;1.42;;;;;;;;;;5098102;28;20167;-64
2022/03/05 00:57:54;;;;;;;3.17;1.67;;;;;;;;;;5096746;28;20163;-63
2022/03/05 01:00:20;;;;;;;2.45;1.50;;;;;;;;;;5094844;28;20521;-63
2022/03/05 01:02:46;;;;;;;3.42;1.50;;;;;;;;;;5094952;28;20163;-64
2022/03/05 01:05:12;;;;;;;3.10;1.63;;;;;;;;;;5094640;28;20610;-64
2022/03/05 01:07:38;;;;;;;4.47;1.85;;;;;;;;;;5094145;28;20476;-64
2022/03/05 01:10:05;;;;;;;5.57;1.83;;;;;;;;;;5094101;28;20164;-64
2022/03/05 01:12:31;;;;;;;4.45;1.80;;;;;;;;;;5094806;28;20163;-63
2022/03/05 01:14:57;;;;;;;5.60;1.90;;;;;;;;;;5094793;28;20690;-63
2022/03/05 01:17:23;;;;;;;4.63;2.05;;;;;;;;;;5094718;28;20252;-63
2022/03/05 01:19:49;;;;;;;3.22;1.63;;;;;;;;;;5094794;28;20175;-63
2022/03/05 01:22:15;;;;;;;3.63;1.90;;;;;;;;;;5094523;28;20194;-63
2022/03/05 01:24:41;;;;;;;3.80;1.90;;;;;;;;;;5094398;28;20198;-63
2022/03/05 01:27:07;;;;;;;3.78;2.15;;;;;;;;;;5094062;28;20276;-64
2022/03/05 01:29:33;;;;;;;4.57;2.28;;;;;;;;;;5094280;28;20163;-63
2022/03/05 01:31:59;;;;;;;6.43;2.30;;;;;;;;;;5094186;28;20254;-65
2022/03/05 01:34:25;;;;;;;6.18;2.60;;;;;;;;;;5094168;28;20155;-63
2022/03/05 01:36:51;;;;;;;5.78;2.20;;;;;;;;;;5094383;28;20167;-63
2022/03/05 01:39:17;;;;;;;4.28;2.20;;;;;;;;;;5094147;28;20164;-64
2022/03/05 01:41:48;;;;;;;4.07;2.17;;;;;;;;;;5094301;28;20168;-63
2022/03/05 01:44:14;;;;;;;4.07;2.08;;;;;;;;;;5093055;28;20486;-64
2022/03/05 01:46:40;;;;;;;3.03;1.73;;;;;;;;;;5094110;28;20218;-63
2022/03/05 01:49:08;;;;;;;3.33;1.75;;;;;;;;;;5094572;28;20194;-64
2022/03/05 01:51:34;;;;;;;3.95;1.77;;;;;;;;;;5094131;28;20168;-63
2022/03/05 01:54:00;;;;;;;3.53;1.92;;;;;;;;;;5094188;28;20215;-64
2022/03/05 01:56:26;;;;;;;4.85;1.60;;;;;;;;;;5093771;28;20175;-63
2022/03/05 01:58:53;;;;;;;8.35;1.73;;;;;;;;;;5094295;28;20527;-64
2022/03/05 02:01:22;;;;;;;4.45;1.80;;;;;;;;;;5093635;28;20179;-61
2022/03/05 02:03:49;;;;;;;5.38;2.00;;;;;;;;;;5093674;28;20171;-64
2022/03/05 02:06:15;;;;;;;3.67;1.60;;;;;;;;;;5093553;28;20347;-64
2022/03/05 02:08:40;;;;;;;4.25;2.00;;;;;;;;;;5093645;28;20194;-64
2022/03/05 02:11:06;;;;;;;7.70;2.05;;;;;;;;;;5093649;28;20203;-64
2022/03/05 02:13:32;;;;;;;4.65;1.83;;;;;;;;;;5093680;28;20159;-64
2022/03/05 02:15:59;;;;;;;3.28;1.30;;;;;;;;;;5093874;28;20167;-64
2022/03/05 02:18:25;;;;;;;2.35;1.50;;;;;;;;;;5093640;28;20171;-64
2022/03/05 02:20:51;;;;;;;1.95;1.30;;;;;;;;;;5093063;28;20174;-64
2022/03/05 02:23:17;;;;;;;4.70;1.63;;;;;;;;;;5093811;28;20164;-64
2022/03/05 02:25:57;;;;;;;2.40;1.58;;;;;;;;;;5093559;28;20562;-64
2022/03/05 02:28:24;;;;;;;3.22;1.55;;;;;;;;;;5093503;28;20167;-64
2022/03/05 02:30:50;;;;;;;4.63;1.40;;;;;;;;;;5093468;28;20253;-64
2022/03/05 02:33:16;;;;;;;2.63;1.40;;;;;;;;;;5093338;28;20571;-64
2022/03/05 02:35:45;;;;;;;1.52;1.40;;;;;;;;;;5093730;28;20503;-64
2022/03/05 02:38:15;;;;;;;3.88;1.23;;;;;;;;;;5093366;28;20622;-64
2022/03/05 02:40:42;;;;;;;1.77;0.93;;;;;;;;;;5093367;28;20174;-64
2022/03/05 02:43:08;;;;;;;3.10;1.38;;;;;;;;;;5093354;28;20179;-64
2022/03/05 02:45:34;;;;;;;2.17;1.58;;;;;;;;;;5093499;28;20181;-64
2022/03/05 02:48:01;;;;;;;4.53;1.00;;;;;;;;;;5093205;28;20202;-64
2022/03/05 02:50:27;;;;;;;4.47;1.00;;;;;;;;;;5093637;28;20174;-63
2022/03/05 02:52:53;;;;;;;3.25;1.05;;;;;;;;;;5093141;28;20499;-64
2022/03/05 02:55:20;;;;;;;3.33;1.02;;;;;;;;;;5093281;28;20171;-63
2022/03/05 02:57:46;;;;;;;7.35;1.13;;;;;;;;;;5093330;28;20638;-61
2022/03/05 03:00:12;;;;;;;3.28;1.02;;;;;;;;;;5093136;28;20254;-64
2022/03/05 03:02:38;;;;;;;2.22;1.13;;;;;;;;;;5093376;28;20159;-64
2022/03/05 03:05:05;;;;;;;2.03;1.02;;;;;;;;;;5093431;28;20168;-64
2022/03/05 03:07:30;;;;;;;3.85;1.23;;;;;;;;;;5092897;28;20593;-62
2022/03/05 03:09:58;;;;;;;2.05;0.90;;;;;;;;;;5093019;28;20247;-64
2022/03/05 03:12:24;;;;;;;2.47;0.75;;;;;;;;;;5093241;28;20172;-64
2022/03/05 03:14:50;;;;;;;1.73;0.80;;;;;;;;;;5092932;28;20178;-63
2022/03/05 03:17:17;;;;;;;2.45;1.00;;;;;;;;;;5092854;28;20246;-63
2022/03/05 03:19:42;;;;;;;2.28;1.27;;;;;;;;;;5092960;28;20614;-62
2022/03/05 03:22:08;;;;;;;2.50;1.05;;;;;;;;;;5092822;28;20271;-63
2022/03/05 03:24:34;;;;;;;2.75;1.20;;;;;;;;;;5093154;28;20174;-62
2022/03/05 03:27:00;;;;;;;2.20;0.68;;;;;;;;;;5092788;28;20226;-62
2022/03/05 03:29:26;;;;;;;1.40;0.90;;;;;;;;;;5092875;28;20598;-62
2022/03/05 03:31:52;;;;;;;1.63;0.90;;;;;;;;;;5093876;28;20224;-63
2022/03/05 03:34:18;;;;;;;1.90;1.15;;;;;;;;;;5096443;28;20212;-62
2022/03/05 03:36:45;;;;;;;2.00;0.95;;;;;;;;;;5096677;28;20256;-63
2022/03/05 03:39:11;;;;;;;5.45;1.10;;;;;;;;;;5097879;28;20172;-63
2022/03/05 03:41:37;;;;;;;4.75;1.15;;;;;;;;;;5098422;28;20168;-64
2022/03/05 03:44:03;;;;;;;3.70;1.00;;;;;;;;;;5096213;28;20190;-63
2022/03/05 03:46:29;;;;;;;3.80;1.27;;;;;;;;;;5096161;28;20184;-63
2022/03/05 03:48:55;;;;;;;3.30;1.20;;;;;;;;;;5096193;28;20159;-63
2022/03/05 03:51:21;;;;;;;1.15;0.85;;;;;;;;;;5096115;28;20175;-63
2022/03/05 03:53:47;;;;;;;5.53;1.15;;;;;;;;;;5096292;28;20254;-63
2022/03/05 03:56:13;;;;;;;3.83;1.05;;;;;;;;;;5096078;28;20553;-63
2022/03/05 03:58:39;;;;;;;4.57;0.90;;;;;;;;;;5095983;28;20167;-63
2022/03/05 04:01:04;;;;;;;1.95;0.80;;;;;;;;;;5095881;28;20167;-63
2022/03/05 04:03:30;;;;;;;3.67;1.00;;;;;;;;;;5096099;28;20198;-63
2022/03/05 04:05:56;;;;;;;2.97;1.00;;;;;;;;;;5095995;28;20198;-63
2022/03/05 04:11:07;;;;;;;1.60;0.90;;;;;;;;;;5095719;28;20633;-63
2022/03/05 04:13:33;;;;;;;1.77;0.95;;;;;;;;;;5095677;28;20168;-63
2022/03/05 04:15:59;;;;;;;3.03;1.08;;;;;;;;;;5095697;28;20240;-63
2022/03/05 04:18:25;;;;;;;1.73;0.80;;;;;;;;;;5095713;28;20167;-63
2022/03/05 04:20:51;;;;;;;2.17;0.98;;;;;;;;;;5095683;28;20178;-63
2022/03/05 04:23:17;;;;;;;1.73;1.10;;;;;;;;;;5095840;28;20160;-63
2022/03/05 04:25:43;;;;;;;2.60;0.98;;;;;;;;;;5095449;28;20642;-63
2022/03/05 04:28:09;;;;;;;3.38;0.75;;;;;;;;;;5095807;28;20164;-63
2022/03/05 04:30:35;;;;;;;1.38;0.77;;;;;;;;;;5095393;28;20480;-63
2022/03/05 04:33:01;;;;;;;2.65;0.80;;;;;;;;;;5095318;28;20173;-63
2022/03/05 04:35:27;;;;;;;1.88;0.82;;;;;;;;;;5095720;28;20163;-63
2022/03/05 04:37:53;;;;;;;2.47;1.27;;;;;;;;;;5095401;28;20168;-63
2022/03/05 04:40:19;;;;;;;2.35;0.88;;;;;;;;;;5095402;28;20164;-63
2022/03/05 04:42:45;;;;;;;1.02;0.60;;;;;;;;;;5095112;28;20172;-63
2022/03/05 04:45:11;;;;;;;3.20;0.90;;;;;;;;;;5095141;28;20178;-63
2022/03/05 04:47:38;;;;;;;3.90;1.48;;;;;;;;;;5094891;28;20266;-63
2022/03/05 04:50:05;;;;;;;3.10;0.98;;;;;;;;;;5095492;28;20152;-63
2022/03/05 04:52:31;;;;;;;2.80;0.90;;;;;;;;;;5094891;28;20170;-63
2022/03/05 04:54:57;;;;;;;3.63;0.90;;;;;;;;;;5095003;28;20533;-63
2022/03/05 04:57:24;;;;;;;1.42;0.95;;;;;;;;;;5095220;28;20258;-63
2022/03/05 04:59:50;;;;;;;4.93;0.90;;;;;;;;;;5095150;28;20187;-63
2022/03/05 05:02:16;;;;;;;3.08;1.10;;;;;;;;;;5095416;28;20724;-63
2022/03/05 05:04:42;;;;;;;2.17;0.98;;;;;;;;;;5095160;28;20168;-63
2022/03/05 05:07:08;;;;;;;5.07;1.20;;;;;;;;;;5094844;28;20210;-63
2022/03/05 05:09:34;;;;;;;3.08;1.00;;;;;;;;;;5095043;28;20172;-63
2022/03/05 05:12:00;;;;;;;2.90;1.10;;;;;;;;;;5095115;28;20179;-63
2022/03/05 05:14:26;;;;;;;2.47;0.90;;;;;;;;;;5095327;28;20628;-63
2022/03/05 05:16:52;;;;;;;2.20;1.08;;;;;;;;;;5094600;28;20164;-63
2022/03/05 05:19:24;;;;;;;2.13;0.80;;;;;;;;;;5094939;28;20174;-63
2022/03/05 05:21:50;;;;;;;2.72;1.00;;;;;;;;;;5094847;28;20148;-63
2022/03/05 05:24:16;;;;;;;3.22;1.02;;;;;;;;;;5093344;28;20229;-63
2022/03/05 05:26:42;;;;;;;1.83;0.70;;;;;;;;;;5094584;28;20187;-63
2022/03/05 05:29:08;;;;;;;2.47;0.90;;;;;;;;;;5094090;28;20161;-63
2022/03/05 05:31:34;;;;;;;3.55;1.13;;;;;;;;;;5094262;28;20167;-63
2022/03/05 05:34:00;;;;;;;2.38;0.90;;;;;;;;;;5094090;28;20162;-63
2022/03/05 05:36:26;;;;;;;2.10;0.90;;;;;;;;;;5094415;28;20622;-63
2022/03/05 05:38:51;;;;;;;4.57;0.80;;;;;;;;;;5094135;28;20217;-64
2022/03/05 05:41:18;;;;;;;3.10;0.80;;;;;;;;;;5094072;28;20567;-63
2022/03/05 05:43:44;;;;;;;3.15;0.90;;;;;;;;;;5094294;28;20167;-63
2022/03/05 05:46:11;;;;;;;2.58;0.80;;;;;;;;;;5093934;28;20195;-63
2022/03/05 05:48:37;;;;;;;2.30;1.08;;;;;;;;;;5094304;28;20267;-64
2022/03/05 05:51:03;;;;;;;3.25;0.95;;;;;;;;;;5094035;28;20156;-63
2022/03/05 05:53:29;;;;;;;3.15;0.90;;;;;;;;;;5093903;28;20174;-64
2022/03/05 05:55:55;;;;;;;3.00;1.10;;;;;;;;;;5093567;28;20167;-63
2022/03/05 05:58:21;;;;;;;2.75;0.90;;;;;;;;;;5094028;28;20168;-63
2022/03/05 06:00:48;;;;;;;3.38;0.80;;;;;;;;;;5094065;28;20186;-63
2022/03/05 06:03:14;;;;;;;2.03;0.85;;;;;;;;;;5094389;28;20167;-63
2022/03/05 06:05:40;;;;;;;3.45;1.00;;;;;;;;;;5094018;28;20213;-62
2022/03/05 06:08:06;;;;;;;2.40;0.73;;;;;;;;;;5094258;28;20167;-63
2022/03/05 06:10:32;;;;;;;0.95;0.80;;;;;;;;;;5094449;28;20605;-63
2022/03/05 06:12:58;;;;;;;2.97;0.90;;;;;;;;;;5094224;28;20164;-63
2022/03/05 06:15:24;;;;;;;3.65;1.02;;;;;;;;;;5093990;28;20175;-63
2022/03/05 06:17:50;;;;;;;1.27;0.80;;;;;;;;;;5093844;28;20243;-63
2022/03/05 06:20:16;;;;;;;3.40;1.00;;;;;;;;;;5094104;28;20191;-63
2022/03/05 06:22:42;;;;;;;2.10;1.05;;;;;;;;;;5093711;28;20170;-63
2022/03/05 06:25:08;;;;;;;2.15;0.82;;;;;;;;;;5093459;28;20164;-65
2022/03/05 06:27:34;;;;;;;2.22;0.93;;;;;;;;;;5093424;28;20187;-64
2022/03/05 06:30:00;;;;;;;3.08;0.88;;;;;;;;;;5093766;28;20301;-63
2022/03/05 06:32:27;;;;;;;1.42;0.88;;;;;;;;;;5093552;28;20245;-63
2022/03/05 06:34:54;;;;;;;2.72;0.80;;;;;;;;;;5093613;28;20174;-63
2022/03/05 06:37:20;;;;;;;4.45;1.08;;;;;;;;;;5093755;28;20179;-63
2022/03/05 06:39:46;;;;;;;2.33;1.00;;;;;;;;;;5093378;28;20201;-63
2022/03/05 06:42:12;;;;;;;1.10;0.80;;;;;;;;;;5093473;28;20554;-64
2022/03/05 06:44:38;;;;;;;0.95;0.70;;;;;;;;;;5093316;28;20199;-63
2022/03/05 06:47:05;;;;;;;1.30;0.80;;;;;;;;;;5093393;28;20183;-63
2022/03/05 06:49:31;;;;;;;1.40;0.95;;;;;;;;;;5093240;28;20163;-63
2022/03/05 06:51:58;;;;;;;2.92;1.20;;;;;;;;;;5093284;28;20477;-63
2022/03/05 06:54:25;;;;;;;1.50;0.80;;;;;;;;;;5093219;28;20156;-64
2022/03/05 06:56:51;;;;;;;2.15;0.93;;;;;;;;;;5093557;28;20172;-63
2022/03/05 06:59:17;;;;;;;2.10;0.90;;;;;;;;;;5093176;28;20171;-63
2022/03/05 07:01:43;;;;;;;4.20;0.80;;;;;;;;;;5093260;28;20397;-64
2022/03/05 07:04:09;;;;;;;4.53;1.00;;;;;;;;;;5093304;28;20175;-64
2022/03/05 07:06:37;;;;;;;3.22;1.10;;;;;;;;;;5095385;28;20187;-62
2022/03/05 07:09:03;;;;;;;2.05;1.00;;;;;;;;;;5097460;28;20235;-62
2022/03/05 07:11:29;;;;;;;4.50;1.35;;;;;;;;;;5096976;28;20580;-62
2022/03/05 07:13:55;;;;;;;3.95;1.40;;;;;;;;;;5097266;28;20379;-63
2022/03/05 07:16:21;;;;;;;2.75;1.20;;;;;;;;;;5097150;28;20171;-62
2022/03/05 07:18:47;;;;;;;3.08;1.00;;;;;;;;;;5100374;28;20175;-63
2022/03/05 07:21:13;;;;;;;3.45;1.40;;;;;;;;;;5101913;28;20164;-65
2022/03/05 07:23:39;;;;;;;2.25;1.35;;;;;;;;;;5096848;28;20202;-63
2022/03/05 07:26:05;;;;;;;3.25;1.42;;;;;;;;;;5096576;28;20219;-63
2022/03/05 07:28:31;;;;;;;3.60;1.52;;;;;;;;;;5096999;28;20182;-63
2022/03/05 07:30:57;;;;;;;4.60;1.40;;;;;;;;;;5096742;28;20202;-63
2022/03/05 07:33:23;;;;;;;2.50;0.95;;;;;;;;;;5096522;28;20599;-62
2022/03/05 07:35:49;;;;;;;2.17;0.95;;;;;;;;;;5096701;28;20168;-62
2022/03/05 07:38:15;;;;;;;4.05;1.00;;;;;;;;;;5096787;28;20550;-62
2022/03/05 07:40:41;;;;;;;2.22;0.95;;;;;;;;;;5096348;28;20190;-63
2022/03/05 07:43:07;;;;;;;1.77;0.93;;;;;;;;;;5096341;28;20266;-62
2022/03/05 07:45:33;;;;;;;2.78;2.10;;;;;;;;;;5096171;28;20168;-62
2022/03/05 07:47:59;;;;;;;4.40;1.20;;;;;;;;;;5096710;28;20259;-62
2022/03/05 07:50:25;;;;;;;2.42;0.90;;;;;;;;;;5096225;28;20195;-63
2022/03/05 07:52:51;;;;;;;3.20;1.30;;;;;;;;;;5096421;28;20164;-64
2022/03/05 07:55:17;;;;;;;3.10;1.10;;;;;;;;;;5096190;28;20159;-63
2022/03/05 07:57:43;;;;;;;1.92;1.00;;;;;;;;;;5096412;28;20303;-63
2022/03/05 08:00:09;;;;;;;1.67;0.80;;;;;;;;;;5096389;28;20642;-60
2022/03/05 08:02:35;;;;;;;2.83;1.17;;;;;;;;;;5096692;28;20167;-61
2022/03/05 08:05:01;;;;;;;1.67;1.05;;;;;;;;;;5096604;28;20497;-61
2022/03/05 08:07:26;;;;;;;1.83;0.90;;;;;;;;;;5096416;28;20187;-61
2022/03/05 08:09:52;;;;;;;2.78;1.10;;;;;;;;;;5096307;28;20220;-61
2022/03/05 08:12:18;;;;;;;2.13;1.00;;;;;;;;;;5096727;28;20168;-60
2022/03/05 08:14:44;;;;;;;1.52;0.95;;;;;;;;;;5096649;28;20155;-60
2022/03/05 08:17:11;;;;;;;3.28;1.08;;;;;;;;;;5095921;28;20271;-61
2022/03/05 08:19:37;;;;;;;2.60;0.90;;;;;;;;;;5097025;28;20242;-61
2022/03/05 08:22:03;;;;;;;1.92;1.05;;;;;;;;;;5096835;28;20610;-60
2022/03/05 08:24:29;;;;;;;2.03;0.93;;;;;;;;;;5097298;28;20174;-61
2022/03/05 08:26:55;;;;;;;2.85;0.95;;;;;;;;;;5096675;28;20187;-61
2022/03/05 08:29:21;;;;;;;3.47;1.00;;;;;;;;;;5096875;28;20202;-61
2022/03/05 08:31:47;;;;;;;1.90;1.02;;;;;;;;;;5096607;28;20171;-60
2022/03/05 08:34:13;;;;;;;2.45;0.85;;;;;;;;;;5097341;28;20160;-61
2022/03/05 08:36:39;;;;;;;1.90;1.00;;;;;;;;;;5096762;28;20509;-61
2022/03/05 08:39:05;;;;;;;2.85;1.30;;;;;;;;;;5097276;28;20254;-61
2022/03/05 08:41:31;;;;;;;1.27;0.75;;;;;;;;;;5097285;28;20171;-61
2022/03/05 08:43:56;;;;;;;2.03;0.80;;;;;;;;;;5097154;28;20206;-61
2022/03/05 08:46:22;;;;;;;2.05;0.90;;;;;;;;;;5096888;28;20190;-61
2022/03/05 08:48:48;;;;;;;2.75;0.80;;;;;;;;;;5096929;28;20155;-61
2022/03/05 08:51:14;;;;;;;2.72;0.98;;;;;;;;;;5096702;28;20159;-61
2022/03/05 08:53:40;;;;;;;1.98;1.00;;;;;;;;;;5096819;28;20160;-61
2022/03/05 08:56:06;;;;;;;2.00;1.25;;;;;;;;;;5096328;28;20174;-61
2022/03/05 08:58:32;;;;;;;2.47;0.90;;;;;;;;;;5096326;28;20253;-60
2022/03/05 09:00:59;;;;;;;2.92;1.15;;;;;;;;;;5095843;28;20645;-60
2022/03/05 09:03:25;;;;;;;2.75;0.90;;;;;;;;;;5096030;28;20172;-61
2022/03/05 09:05:52;;;;;;;2.10;0.75;;;;;;;;;;5095668;28;20202;-60
2022/03/05 09:08:19;;;;;;;2.40;0.90;;;;;;;;;;5095658;28;20168;-61
2022/03/05 09:10:45;;;;;;;3.33;1.02;;;;;;;;;;5095715;28;20290;-61
2022/03/05 09:13:11;;;;;;;2.15;1.10;;;;;;;;;;5095681;28;20574;-60
2022/03/05 09:15:37;;;;;;;1.20;0.88;;;;;;;;;;5095636;28;20159;-61
2022/03/05 09:18:04;;;;;;;1.15;0.70;;;;;;;;;;5095472;28;20156;-61
2022/03/05 09:20:30;;;;;;;1.63;0.68;;;;;;;;;;5095427;28;20670;-60
2022/03/05 09:22:56;;;;;;;2.42;0.77;;;;;;;;;;5095698;28;20206;-61
2022/03/05 09:25:22;;;;;;;3.80;1.10;;;;;;;;;;5095391;28;20156;-60
2022/03/05 09:27:48;;;;;;;3.13;0.98;;;;;;;;;;5095007;28;20226;-61
2022/03/05 09:30:14;;;;;;;3.00;0.88;;;;;;;;;;5094632;28;20156;-61
2022/03/05 09:32:40;;;;;;;1.85;0.95;;;;;;;;;;5095525;28;20575;-61
2022/03/05 09:35:06;;;;;;;1.00;0.60;;;;;;;;;;5095674;28;20163;-61
2022/03/05 09:37:34;;;;;;;1.48;0.47;;;;;;;;;;5095305;28;20312;-61
2022/03/05 09:40:00;;;;;;;1.95;0.80;;;;;;;;;;5094901;28;20228;-61
2022/03/05 09:42:26;;;;;;;2.67;0.65;;;;;;;;;;5095146;28;20675;-61
2022/03/05 09:44:52;;;;;;;1.42;0.50;;;;;;;;;;5095499;28;20164;-61
2022/03/05 09:47:19;;;;;;;1.90;0.80;;;;;;;;;;5096422;28;20183;-61
2022/03/05 09:49:45;;;;;;;1.35;0.70;;;;;;;;;;5096688;28;20588;-61
2022/03/05 09:52:11;;;;;;;1.30;0.65;;;;;;;;;;5095049;28;20303;-61
2022/03/05 09:54:37;;;;;;;3.42;0.70;;;;;;;;;;5095489;28;20232;-61
2022/03/05 09:57:10;;;;;;;0.88;0.50;;;;;;;;;;5095050;28;20175;-61
2022/03/05 09:59:36;;;;;;;1.50;0.60;;;;;;;;;;5095288;28;20171;-61
2022/03/05 10:02:04;;;;;;;1.10;0.70;;;;;;;;;;5095410;28;20191;-61
2022/03/05 10:04:31;;;;;;;1.73;0.60;;;;;;;;;;5094284;28;20556;-61
2022/03/05 10:07:06;;;;;;;1.85;0.45;;;;;;;;;;5093918;28;20196;-61
2022/03/05 10:09:32;;;;;;;2.58;0.80;;;;;;;;;;5094746;28;20155;-60
2022/03/05 10:11:57;;;;;;;0.95;0.63;;;;;;;;;;5094034;28;20643;-61
2022/03/05 10:14:23;;;;;;;2.65;0.60;;;;;;;;;;5094213;28;20210;-61
2022/03/05 10:16:49;;;;;;;3.50;0.70;;;;;;;;;;5094097;28;20179;-60
2022/03/05 10:19:20;;;;;;;2.92;0.70;;;;;;;;;;5094780;28;20212;-61
2022/03/05 10:21:59;;;;;;;1.13;0.60;;;;;;;;;;5094678;28;20163;-61
2022/03/05 10:24:38;;;;;;;5.00;0.85;;;;;;;;;;5094534;28;20610;-61
2022/03/05 10:27:05;;;;;;;1.92;0.70;;;;;;;;;;5094235;28;20187;-61
2022/03/05 10:29:37;;;;;;;1.58;0.88;;;;;;;;;;5094307;28;20170;-61
2022/03/05 10:32:06;;;;;;;1.95;0.70;;;;;;;;;;5094425;28;20152;-61
2022/03/05 10:34:42;;;;;;;1.55;0.52;;;;;;;;;;5094834;28;20159;-61
2022/03/05 10:37:08;;;;;;;1.08;0.47;;;;;;;;;;5094837;28;20183;-61
2022/03/05 10:39:35;;;;;;;1.27;0.50;;;;;;;;;;5094410;28;20595;-61
2022/03/05 10:42:01;;;;;;;2.05;0.77;;;;;;;;;;5097710;28;20220;-61
2022/03/05 10:44:27;;;;;;;3.03;0.70;;;;;;;;;;5098478;28;20172;-61
2022/03/05 10:46:58;;;;;;;1.55;0.70;;;;;;;;;;5098520;28;20248;-61
2022/03/05 10:49:31;;;;;;;1.02;0.40;;;;;;;;;;5098024;28;20160;-61
2022/03/05 10:52:00;;;;;;;1.90;0.77;;;;;;;;;;5098390;28;20171;-61
2022/03/05 10:54:27;;;;;;;1.40;0.90;;;;;;;;;;5097289;28;20175;-61
2022/03/05 10:56:55;;;;;;;0.90;0.60;;;;;;;;;;5097490;28;20203;-61
2022/03/05 10:59:22;;;;;;;2.45;0.75;;;;;;;;;;5097576;28;20202;-61
2022/03/05 11:01:48;;;;;;;1.42;0.52;;;;;;;;;;5096959;28;20533;-61
2022/03/05 11:04:14;;;;;;;0.85;0.55;;;;;;;;;;5097217;28;20167;-61
2022/03/05 11:06:42;;;;;;;2.40;0.47;;;;;;;;;;5096782;28;20279;-61
2022/03/05 11:09:09;;;;;;;1.42;0.63;;;;;;;;;;5096932;28;20191;-61
2022/03/05 11:11:36;;;;;;;0.70;0.60;;;;;;;;;;5097457;28;20228;-61
2022/03/05 11:14:02;;;;;;;1.50;0.57;;;;;;;;;;5097342;28;20200;-61
2022/03/05 11:16:28;;;;;;;2.38;0.80;;;;;;;;;;5097389;28;20274;-61
2022/03/05 11:18:55;;;;;;;1.63;0.70;;;;;;;;;;5097590;28;20254;-61
2022/03/05 11:21:20;;;;;;;1.92;0.60;;;;;;;;;;5097303;28;20167;-61
2022/03/05 11:23:47;;;;;;;1.33;0.65;;;;;;;;;;5097386;28;20160;-61
2022/03/05 11:26:13;;;;;;;1.73;0.60;;;;;;;;;;5097930;28;20214;-61
2022/03/05 11:28:40;;;;;;;2.42;0.68;;;;;;;;;;5098003;28;20167;-61
2022/03/05 11:31:07;;;;;;;1.67;0.60;;;;;;;;;;5097923;28;20427;-61
2022/03/05 11:33:38;;;;;;;1.52;0.70;;;;;;;;;;5097320;28;20166;-61
2022/03/05 11:36:08;;;;;;;2.00;0.73;;;;;;;;;;5096798;28;20242;-62
2022/03/05 11:38:35;;;;;;;2.45;0.80;;;;;;;;;;5097682;28;20263;-61
2022/03/05 11:41:20;;;;;;;1.30;0.70;;;;;;;;;;5097323;28;20225;-61
2022/03/05 11:43:49;;;;;;;2.55;0.93;;;;;;;;;;5097746;28;20174;-61
2022/03/05 11:46:25;;;;;;;2.17;0.90;;;;;;;;;;5097694;28;20191;-61
2022/03/05 11:49:04;;;;;;;1.70;1.08;;;;;;;;;;5097302;28;20166;-61
2022/03/05 11:51:31;;;;;;;1.80;0.77;;;;;;;;;;5097085;28;20246;-61
2022/03/05 11:54:05;;;;;;;1.50;0.80;;;;;;;;;;5095966;28;20171;-60
2022/03/05 11:56:31;;;;;;;1.83;0.90;;;;;;;;;;5096069;28;20496;-61
2022/03/05 11:58:58;;;;;;;1.58;0.95;;;;;;;;;;5096181;28;20167;-61
2022/03/05 12:01:38;;;;;;;1.63;0.90;;;;;;;;;;5096044;28;20183;-61
2022/03/05 12:04:16;;;;;;;1.40;0.75;;;;;;;;;;5096087;28;20240;-62
2022/03/05 12:06:44;;;;;;;2.45;0.60;;;;;;;;;;5095779;28;20183;-62
2022/03/05 12:09:29;;;;;;;1.75;0.82;;;;;;;;;;5096080;28;20181;-61
2022/03/05 12:11:55;;;;;;;1.98;0.80;;;;;;;;;;5095882;28;20178;-61
2022/03/05 12:14:21;;;;;;;2.42;0.80;;;;;;;;;;5095768;28;20548;-61
2022/03/05 12:16:48;;;;;;;1.30;0.80;;;;;;;;;;5096023;28;20270;-61
2022/03/05 12:19:15;;;;;;;2.10;0.70;;;;;;;;;;5095895;28;20178;-61
2022/03/05 12:21:41;;;;;;;2.60;0.90;;;;;;;;;;5095503;28;20175;-61
2022/03/05 12:24:09;;;;;;;1.40;0.70;;;;;;;;;;5095638;28;20543;-61
2022/03/05 12:26:43;;;;;;;4.05;1.33;;;;;;;;;;5095437;28;20627;-61
2022/03/05 12:29:09;;;;;;;1.33;0.90;;;;;;;;;;5095541;28;20163;-61
2022/03/05 12:31:39;;;;;;;1.70;0.77;;;;;;;;;;5095446;28;20198;-61
2022/03/05 12:34:05;;;;;;;2.60;0.90;;;;;;;;;;5095597;28;20242;-62
2022/03/05 12:36:31;;;;;;;2.55;1.17;;;;;;;;;;5095649;28;20270;-60
2022/03/05 12:38:58;;;;;;;2.53;1.05;;;;;;;;;;5095596;28;20293;-61
2022/03/05 12:41:25;;;;;;;2.72;1.00;;;;;;;;;;5095255;28;20160;-61
2022/03/05 12:43:50;;;;;;;1.88;0.93;;;;;;;;;;5095356;28;20175;-61
2022/03/05 12:46:17;;;;;;;1.58;0.70;;;;;;;;;;5095357;28;20183;-61
2022/03/05 12:48:43;;;;;;;1.25;0.80;;;;;;;;;;5095249;28;20160;-61
2022/03/05 12:51:09;;;;;;;1.33;0.90;;;;;;;;;;5094188;28;20597;-61
2022/03/05 12:53:35;;;;;;;2.00;0.98;;;;;;;;;;5095347;28;20168;-61
2022/03/05 12:56:02;;;;;;;1.05;0.82;;;;;;;;;;5094949;28;20168;-61
2022/03/05 12:58:28;;;;;;;1.75;0.80;;;;;;;;;;5094974;28;20168;-61
2022/03/05 13:00:55;;;;;;;2.13;0.95;;;;;;;;;;5094566;28;20256;-61
2022/03/05 13:03:22;;;;;;;2.63;1.20;;;;;;;;;;5094417;28;20760;-61
2022/03/05 13:05:49;;;;;;;1.58;1.23;;;;;;;;;;5094868;28;20176;-61
2022/03/05 13:08:19;;;;;;;1.55;1.00;;;;;;;;;;5094810;28;20192;-61
2022/03/05 13:10:48;;;;;;;1.88;1.00;;;;;;;;;;5095160;28;20166;-61
2022/03/05 13:13:16;;;;;;;0.95;0.80;;;;;;;;;;5094902;28;20191;-61
2022/03/05 13:15:42;;;;;;;1.42;1.08;;;;;;;;;;5094896;28;20242;-61
2022/03/05 13:18:14;;;;;;;3.63;1.20;;;;;;;;;;5095358;28;20546;-61
2022/03/05 13:20:40;;;;;;;2.03;1.20;;;;;;;;;;5095384;28;20148;-61
2022/03/05 13:23:07;;;;;;;2.25;1.15;;;;;;;;;;5095202;28;20164;-61
2022/03/05 13:25:39;;;;;;;1.58;1.00;;;;;;;;;;5095513;28;20163;-61
2022/03/05 13:28:05;;;;;;;1.00;0.90;;;;;;;;;;5095326;28;20217;-61
2022/03/05 13:30:31;;;;;;;1.88;1.02;;;;;;;;;;5094410;28;20167;-61
2022/03/05 13:32:57;;;;;;;2.40;0.82;;;;;;;;;;5094378;28;20571;-61
2022/03/05 13:35:27;;;;;;;1.85;0.70;;;;;;;;;;5094185;28;20509;-61
2022/03/05 13:37:54;;;;;;;1.63;0.70;;;;;;;;;;5094495;28;20152;-61
2022/03/05 13:40:19;;;;;;;3.50;1.10;;;;;;;;;;5094174;28;20164;-61
2022/03/05 13:42:46;;;;;;;1.27;1.02;;;;;;;;;;5094498;28;20170;-61
2022/03/05 13:45:14;;;;;;;2.97;0.80;;;;;;;;;;5094497;28;20166;-61
2022/03/05 13:47:41;;;;;;;1.42;0.70;;;;;;;;;;5094370;28;20195;-61
2022/03/05 13:50:08;;;;;;;2.20;1.00;;;;;;;;;;5094655;28;20160;-61
2022/03/05 13:52:34;;;;;;;1.13;0.73;;;;;;;;;;5094365;28;20166;-61
2022/03/05 13:55:11;;;;;;;1.10;0.90;;;;;;;;;;5094186;28;20168;-61
2022/03/05 13:57:37;;;;;;;1.75;1.10;;;;;;;;;;5094717;28;20179;-62
2022/03/05 14:00:11;;;;;;;2.17;0.95;;;;;;;;;;5094166;28;20190;-62
2022/03/05 14:02:37;;;;;;;1.27;1.10;;;;;;;;;;5094717;28;20270;-61
2022/03/05 14:05:08;;;;;;;0.90;0.73;;;;;;;;;;5094054;28;20170;-61
2022/03/05 14:07:37;;;;;;;1.35;0.88;;;;;;;;;;5093979;28;20191;-61
2022/03/05 14:10:03;;;;;;;1.02;0.90;;;;;;;;;;5094142;28;20171;-61
2022/03/05 14:12:30;;;;;;;1.98;1.20;;;;;;;;;;5094126;28;20167;-61
2022/03/05 14:14:57;;;;;;;1.80;0.90;;;;;;;;;;5093811;28;20198;-61
2022/03/05 14:17:27;;;;;;;2.67;0.80;;;;;;;;;;5094119;28;20622;-61
2022/03/05 14:20:13;;;;;;;1.63;1.00;;;;;;;;;;5094521;28;20167;-61
2022/03/05 14:22:47;;;;;;;2.97;0.82;;;;;;;;;;5095113;28;20676;-61
2022/03/05 14:25:24;;;;;;;2.88;1.40;;;;;;;;;;5094742;28;20498;-61
2022/03/05 14:27:51;;;;;;;1.88;0.90;;;;;;;;;;5094536;28;20510;-61
2022/03/05 14:30:17;;;;;;;3.75;1.10;;;;;;;;;;5094411;28;20298;-60
2022/03/05 14:32:43;;;;;;;2.08;0.90;;;;;;;;;;5094996;28;20220;-61
2022/03/05 14:35:10;;;;;;;1.80;1.00;;;;;;;;;;5094528;28;20171;-61
2022/03/05 14:37:37;;;;;;;1.75;1.17;;;;;;;;;;5094444;28;20179;-61
2022/03/05 14:40:04;;;;;;;1.17;0.95;;;;;;;;;;5094891;28;20171;-61
2022/03/05 14:42:30;;;;;;;1.67;0.85;;;;;;;;;;5094566;28;20217;-61
2022/03/05 14:44:55;;;;;;;1.33;0.70;;;;;;;;;;5094746;28;20573;-61